tititudorancea.com
Station Historical Data
Daily Summary for September 11, 2018 Units:  Metric    English   Both
« Previous Day
Next Day »
Daily Weekly Monthly Yearly Custom
  High: Low: Average:
Temperature: -17.8 °C 8.5 °C 15.6 °C
Dew Point: -17.8 °C -0.6 °C 6.8 °C
Humidity: Humidity % 22 % 63 %
Wind Speed: 0 km/h 0 km/h 22.4 km/h
Wind Gust: 0 km/h - -
Wind:- - SSE
Pressure: 0 hPa 1002.9 hPa -
Precipitation: 0.99 mm    
Historical Graphs
 
 
Ararat weather Find more about Weather in Ararat, AU


 



 


Tabular Data for September 11, 2018
Time Temperature Dew Point Pressure Wind Wind Speed Wind Gust Humidity Rainfall Rate (Hourly)
-17.8 °C -17.8 °C 0 hPa Calm     Humidity % 0 mm
00:04 8.9 °C 7.6 °C 1019.5 hPa North 3.7 km/h 1.4 km/h 91 % 0 mm
00:09 8.9 °C 7.5 °C 1019.5 hPa Calm     91 % 0 mm
00:14 8.8 °C 7.4 °C 1019.5 hPa North 3.2 km/h 1.6 km/h 91 % 0 mm
00:19 8.8 °C 7.4 °C 1019.2 hPa Calm     91 % 0 mm
00:24 8.6 °C 7.2 °C 1019.2 hPa North 5.6 km/h 2.6 km/h 91 % 0 mm
00:29 8.5 °C 7.3 °C 1019.2 hPa North 5.6 km/h 5 km/h 92 % 0 mm
00:34 8.6 °C 7.3 °C 1019.2 hPa North 5.6 km/h 4 km/h 92 % 0 mm
00:39 9.2 °C 8.3 °C 1019.2 hPa North 6.4 km/h 6.3 km/h 94 % 0 mm
00:44 9.9 °C 9 °C 1019.2 hPa North 9.3 km/h 4 km/h 94 % 0 mm
00:49 10.3 °C 9.3 °C 1018.8 hPa North 7.4 km/h 5.6 km/h 93 % 0 mm
00:54 10.5 °C 9.3 °C 1018.8 hPa North 6.4 km/h 5.5 km/h 92 % 0 mm
00:59 10.5 °C 9.3 °C 1018.8 hPa North 6.4 km/h 4.5 km/h 92 % 0 mm
01:04 10.5 °C 9.1 °C 1018.8 hPa North 5.6 km/h 4.5 km/h 91 % 0 mm
01:09 10.5 °C 9.1 °C 1018.8 hPa North 5.6 km/h 4.3 km/h 91 % 0 mm
01:14 10.4 °C 8.9 °C 1018.8 hPa North 5.6 km/h 3.4 km/h 90 % 0 mm
01:19 10.4 °C 8.8 °C 1018.5 hPa North 3.7 km/h 3.1 km/h 90 % 0 mm
01:24 10.3 °C 8.8 °C 1018.5 hPa North 1.9 km/h   90 % 0 mm
01:29 10.2 °C 8.7 °C 1018.5 hPa Calm     90 % 0 mm
01:34 10.1 °C 8.5 °C 1018.5 hPa North 1.9 km/h   90 % 0 mm
01:39 9.8 °C 8.1 °C 1018.2 hPa North 3.7 km/h 2.9 km/h 89 % 0 mm
01:44 9.5 °C 7.8 °C 1018.2 hPa North 5.6 km/h 3.4 km/h 89 % 0 mm
01:49 9.6 °C 8.2 °C 1018.2 hPa North 7.4 km/h 4.5 km/h 91 % 0 mm
01:54 10 °C 9.2 °C 1017.8 hPa North 11.1 km/h 6.1 km/h 95 % 0 mm
01:59 10.3 °C 8.9 °C 1017.8 hPa North 9.7 km/h 6.6 km/h 91 % 0 mm
02:04 10.4 °C 8.8 °C 1017.8 hPa North 9.3 km/h 6.3 km/h 90 % 0 mm
02:09 10.4 °C 8.7 °C 1017.5 hPa North 7.4 km/h 5.5 km/h 89 % 0 mm
02:14 10.4 °C 8.7 °C 1017.5 hPa North 9.7 km/h 6 km/h 89 % 0 mm
02:19 10.4 °C 8.7 °C 1017.5 hPa North 7.4 km/h 6.3 km/h 89 % 0 mm
02:24 10.4 °C 8.7 °C 1017.2 hPa North 7.4 km/h 5.3 km/h 89 % 0 mm
02:29 10.4 °C 8.5 °C 1017.2 hPa North 7.4 km/h 6.4 km/h 88 % 0 mm
02:34 10.4 °C 8.5 °C 1017.2 hPa North 11.1 km/h 8.2 km/h 88 % 0 mm
02:39 10.3 °C 8.4 °C 1017.2 hPa North 9.7 km/h 8.5 km/h 88 % 0 mm
02:44 10.2 °C 8.3 °C 1017.2 hPa North 9.3 km/h 8 km/h 88 % 0 mm
02:49 10.2 °C 8.3 °C 1016.8 hPa North 8 km/h 6.8 km/h 88 % 0 mm
02:54 10.2 °C 8.9 °C 1016.8 hPa North 9.3 km/h 7.1 km/h 92 % 0 mm
02:59 10.1 °C 8.2 °C 1016.8 hPa North 9.3 km/h 6.6 km/h 88 % 0 mm
03:04 10.1 °C 8.2 °C 1016.8 hPa North 7.4 km/h 6.4 km/h 88 % 0 mm
03:09 10 °C 8.1 °C 1016.5 hPa North 14.8 km/h 7.4 km/h 88 % 0 mm
03:14 10.1 °C 8.2 °C 1016.5 hPa North 11.1 km/h 6.3 km/h 88 % 0 mm
03:19 10.1 °C 8.2 °C 1016.5 hPa North 14.8 km/h 7.6 km/h 88 % 0 mm
03:24 10.2 °C 8.3 °C 1016.5 hPa North 9.3 km/h 6.8 km/h 88 % 0 mm
03:29 10.2 °C 8.3 °C 1016.5 hPa North 9.7 km/h 6.8 km/h 88 % 0 mm
03:34 10.2 °C 8.3 °C 1016.5 hPa North 9.3 km/h 5.6 km/h 88 % 0 mm
03:39 10.3 °C 8.4 °C 1016.1 hPa North 11.1 km/h 6.9 km/h 88 % 0 mm
03:44 10.4 °C 8.3 °C 1016.1 hPa North 13 km/h 7.4 km/h 87 % 0 mm
03:49 10.4 °C 8.4 °C 1016.1 hPa North 9.3 km/h 7.2 km/h 87 % 0 mm
03:54 10.6 °C 8.5 °C 1016.1 hPa North 8 km/h 6.6 km/h 87 % 0 mm
03:59 10.6 °C 8.5 °C 1016.1 hPa North 9.3 km/h 6.4 km/h 87 % 0 mm
04:04 10.6 °C 8.4 °C 1016.1 hPa North 9.3 km/h 7.2 km/h 86 % 0 mm
04:09 10.7 °C 8.4 °C 1016.1 hPa North 9.7 km/h 7.2 km/h 86 % 0 mm
04:14 10.7 °C 8.5 °C 1016.1 hPa North 8 km/h 6.9 km/h 86 % 0 mm
04:19 10.8 °C 8.6 °C 1016.1 hPa North 11.1 km/h 7.1 km/h 86 % 0 mm
04:24 10.8 °C 8.3 °C 1016.1 hPa North 8 km/h 6.6 km/h 85 % 0 mm
04:29 10.8 °C 8.3 °C 1016.1 hPa North 9.7 km/h 8.4 km/h 85 % 0 mm
04:34 10.8 °C 8.3 °C 1016.1 hPa North 9.3 km/h 5.3 km/h 85 % 0 mm
04:39 10.8 °C 8.3 °C 1016.1 hPa North 9.3 km/h 6.8 km/h 85 % 0 mm
04:44 10.8 °C 8.3 °C 1016.1 hPa North 7.4 km/h 6 km/h 85 % 0 mm
04:49 10.7 °C 8.3 °C 1016.1 hPa North 7.4 km/h 6.6 km/h 85 % 0 mm
04:54 10.6 °C 8.2 °C 1016.5 hPa North 6.4 km/h 5.1 km/h 85 % 0 mm
04:59 10.4 °C 8.2 °C 1016.5 hPa North 9.3 km/h 6 km/h 86 % 0 mm
05:04 10.4 °C 8.2 °C 1016.1 hPa North 11.1 km/h 6.3 km/h 86 % 0 mm
05:09 10.3 °C 8.1 °C 1016.1 hPa North 5.6 km/h 3.9 km/h 86 % 0 mm
05:14 10.2 °C 8.2 °C 1016.5 hPa North 6.4 km/h 4.2 km/h 87 % 0 mm
05:19 10.2 °C 8.1 °C 1016.1 hPa North 7.4 km/h 5.3 km/h 87 % 0 mm
05:24 10.1 °C 8.1 °C 1016.1 hPa North 5.6 km/h 4.7 km/h 87 % 0 mm
05:29 10.1 °C 8.1 °C 1016.1 hPa North 7.4 km/h 5.3 km/h 87 % 0 mm
05:34 10.1 °C 8.1 °C 1016.1 hPa North 5.6 km/h 5 km/h 87 % 0 mm
05:39 10.1 °C 8.2 °C 1016.1 hPa North 7.4 km/h 5.6 km/h 88 % 0 mm
05:44 10.1 °C 8.2 °C 1016.1 hPa North 9.3 km/h 4.7 km/h 88 % 0 mm
05:49 10.1 °C 8.2 °C 1016.1 hPa North 9.3 km/h 6.8 km/h 88 % 0 mm
05:54 10.1 °C 8.2 °C 1015.8 hPa North 9.3 km/h 5.3 km/h 88 % 0 mm
05:59 10.1 °C 8.2 °C 1015.8 hPa North 8 km/h 5.6 km/h 88 % 0 mm
06:04 10.1 °C 8.2 °C 1015.8 hPa North 7.4 km/h 2.4 km/h 88 % 0 mm
06:09 10 °C 8.1 °C 1015.8 hPa North 5.6 km/h 4.2 km/h 88 % 0 mm
06:14 9.9 °C 8.1 °C 1015.8 hPa North 5.6 km/h 2.6 km/h 88 % 0 mm
06:19 9.9 °C 8 °C 1015.8 hPa North 5.6 km/h 3.4 km/h 88 % 0 mm
06:24 9.8 °C 7.9 °C 1015.5 hPa North 7.4 km/h 4 km/h 88 % 0 mm
06:29 9.8 °C 7.9 °C 1015.5 hPa North 5.6 km/h 4 km/h 88 % 0 mm
06:34 9.7 °C 7.8 °C 1015.8 hPa North 5.6 km/h 3.9 km/h 88 % 0 mm
06:39 9.7 °C 7.8 °C 1015.5 hPa North 5.6 km/h 1.3 km/h 88 % 0 mm
06:44 9.7 °C 7.8 °C 1015.5 hPa North 5.6 km/h 3.2 km/h 88 % 0 mm
06:49 9.7 °C 7.8 °C 1015.5 hPa North 5.6 km/h 3.1 km/h 88 % 0 mm
06:54 9.6 °C 7.9 °C 1015.5 hPa North 5.6 km/h 4.3 km/h 89 % 0 mm
06:59 9.6 °C 7.8 °C 1015.5 hPa North 5.6 km/h 3.5 km/h 89 % 0 mm
07:04 9.6 °C 7.8 °C 1015.5 hPa North 5.6 km/h 4 km/h 89 % 0 mm
07:09 9.6 °C 7.9 °C 1015.5 hPa North 5.6 km/h 2.9 km/h 89 % 0 mm
07:14 9.7 °C 7.9 °C 1015.5 hPa North 3.7 km/h   89 % 0 mm
07:19 9.7 °C 8 °C 1015.5 hPa North 3.7 km/h 1.6 km/h 89 % 0 mm
07:24 9.9 °C 8.2 °C 1015.5 hPa North 5.6 km/h 3.1 km/h 89 % 0 mm
07:29 10.1 °C 8.3 °C 1015.5 hPa North 3.7 km/h 1.3 km/h 89 % 0 mm
07:34 10.2 °C 8.5 °C 1015.5 hPa North 5.6 km/h 3.4 km/h 89 % 0 mm
07:47 10.8 °C 8.9 °C 1015.5 hPa North 4.8 km/h   88 % 0 mm
07:59 11.4 °C 9.2 °C 1015.1 hPa North 4.8 km/h 5 km/h 86 % 0 mm
08:04 11.7 °C 9.1 °C 1015.1 hPa North 7.4 km/h 6 km/h 84 % 0 mm
08:09 12.1 °C 9.5 °C 1015.1 hPa North 16.7 km/h 11.4 km/h 84 % 0 mm
08:14 12.6 °C 9.6 °C 1015.1 hPa North 20.4 km/h 13.7 km/h 82 % 0 mm
08:15 12.6 °C 9.4 °C 1015.1 hPa North 16.7 km/h 11.7 km/h 81 % 0 mm
08:24 13.2 °C 9.4 °C 1014.8 hPa North 16.7 km/h 16.7 km/h 78 % 0 mm
08:29 13.4 °C 9.4 °C 1014.8 hPa North 18.5 km/h 11.3 km/h 77 % 0 mm
08:34 13.6 °C 9.4 °C 1014.8 hPa NNE 25.9 km/h 16.6 km/h 76 % 0 mm
08:39 13.7 °C 9.4 °C 1014.8 hPa North 25.9 km/h 13.8 km/h 75 % 0 mm
08:44 13.9 °C 9.3 °C 1014.8 hPa NNW 22.2 km/h 22.2 km/h 74 % 0 mm
08:49 13.9 °C 9.3 °C 1014.4 hPa North 25.9 km/h 17.4 km/h 74 % 0 mm
08:54 14 °C 9.4 °C 1014.4 hPa North 29.6 km/h 16.7 km/h 74 % 0 mm
08:59 14 °C 9.4 °C 1014.4 hPa North 31.5 km/h 15.9 km/h 74 % 0 mm
09:04 14.2 °C 9.6 °C 1014.4 hPa North 20.4 km/h 15.3 km/h 74 % 0 mm
09:09 14.2 °C 9.4 °C 1014.4 hPa North 27.8 km/h 11.9 km/h 73 % 0 mm
09:14 14.3 °C 9.3 °C 1014.1 hPa NNE 27.8 km/h 22 km/h 72 % 0 mm
09:19 14.4 °C 9.7 °C 1014.1 hPa North 24.1 km/h 13.2 km/h 73 % 0 mm
09:24 14.7 °C 9.7 °C 1014.1 hPa North 20.9 km/h 18.3 km/h 72 % 0 mm
09:29 14.9 °C 9.7 °C 1013.8 hPa North 25.9 km/h 17.1 km/h 71 % 0 mm
09:34 15.1 °C 9.7 °C 1013.8 hPa North 20.9 km/h 17.2 km/h 70 % 0 mm
09:39 15.2 °C 9.8 °C 1013.8 hPa North 30.6 km/h 16.4 km/h 70 % 0 mm
09:44 15.4 °C 9.5 °C 1013.4 hPa North 31.5 km/h 18.7 km/h 68 % 0 mm
09:49 15.6 °C 9.7 °C 1013.4 hPa North 25.7 km/h 21.1 km/h 68 % 0 mm
09:54 15.7 °C 9.6 °C 1013.4 hPa North 35.2 km/h 17.4 km/h 67 % 0 mm
09:59 16 °C 9.9 °C 1013.1 hPa NNE 14.8 km/h 12.9 km/h 67 % 0 mm
10:04 16.2 °C 9.8 °C 1012.8 hPa North 27.8 km/h 12.7 km/h 66 % 0 mm
10:09 16.3 °C 9.7 °C 1012.8 hPa North 25.9 km/h 16.9 km/h 65 % 0 mm
10:14 16.5 °C 9.9 °C 1012.8 hPa North 24.1 km/h 19.2 km/h 65 % 0 mm
10:19 16.7 °C 9.8 °C 1012.4 hPa NNE 24.1 km/h 18.3 km/h 64 % 0 mm
10:24 16.9 °C 10.1 °C 1012.4 hPa North 20.4 km/h 13.2 km/h 64 % 0 mm
10:29 17.4 °C 10.3 °C 1012.1 hPa NNE 20.4 km/h 17.9 km/h 63 % 0 mm
10:34 17.6 °C 9.7 °C 1012.1 hPa North 25.9 km/h 17.7 km/h 60 % 0 mm
10:39 17.8 °C 9.4 °C 1011.7 hPa North 33.3 km/h 20.6 km/h 58 % 0 mm
10:44 18.1 °C 9.7 °C 1011.7 hPa NNE 31.5 km/h 16.1 km/h 58 % 0 mm
10:49 18.2 °C 9.6 °C 1011.7 hPa North 35.2 km/h 17.7 km/h 57 % 0 mm
10:54 18.4 °C 9.2 °C 1011.4 hPa NNE 40.7 km/h 24.9 km/h 55 % 0 mm
10:59 18.5 °C 9.6 °C 1011.1 hPa North 27.8 km/h 20.1 km/h 56 % 0 mm
11:04 18.6 °C 9.3 °C 1011.1 hPa North 24.1 km/h 18.7 km/h 55 % 0 mm
11:09 18.8 °C 8.7 °C 1011.1 hPa North 42.6 km/h 18.2 km/h 52 % 0 mm
11:14 18.9 °C 9.1 °C 1010.7 hPa North 31.5 km/h 19.6 km/h 53 % 0 mm
11:19 19.1 °C 9 °C 1010.7 hPa North 35.2 km/h 27.8 km/h 52 % 0 mm
11:24 19.1 °C 9 °C 1010.4 hPa NNW 27.4 km/h 20.9 km/h 52 % 0 mm
11:29 19.4 °C 9.3 °C 1010.4 hPa North 22.2 km/h 15.3 km/h 52 % 0 mm
11:34 19.8 °C 9.7 °C 1010.4 hPa NNE 31.5 km/h 13.7 km/h 52 % 0 mm
11:39 20 °C 9.3 °C 1010.4 hPa North 35.2 km/h 30.1 km/h 50 % 0 mm
11:44 20.1 °C 9 °C 1010.4 hPa North 27.8 km/h 25.3 km/h 49 % 0 mm
11:49 20 °C 9.3 °C 1010 hPa North 22.5 km/h 19.2 km/h 50 % 0 mm
11:54 20.1 °C 9.1 °C 1009.7 hPa North 27.8 km/h 19.2 km/h 49 % 0 mm
11:59 20.2 °C 8.8 °C 1009.7 hPa North 35.2 km/h 26.1 km/h 48 % 0 mm
12:04 20.4 °C 8.7 °C 1009.7 hPa North 37 km/h 19 km/h 47 % 0 mm
12:09 20.5 °C 8.5 °C 1009.4 hPa NNW 37 km/h 24.8 km/h 46 % 0 mm
12:14 20.4 °C 8.4 °C 1009.4 hPa North 40.7 km/h 19.6 km/h 46 % 0 mm
12:19 20.6 °C 8.6 °C 1009.4 hPa North 33.3 km/h 26.7 km/h 46 % 0 mm
12:24 21 °C 8.9 °C 1009 hPa NNE 29.6 km/h 20 km/h 46 % 0 mm
12:29 21.2 °C 8.8 °C 1009 hPa NW 35.4 km/h 18 km/h 45 % 0 mm
12:34 21.4 °C 8 °C 1009 hPa North 37 km/h 21.9 km/h 42 % 0 mm
12:39 21.5 °C 7.7 °C 1008.7 hPa NNE 35.2 km/h 22 km/h 41 % 0 mm
12:44 21.7 °C 7.5 °C 1008.7 hPa NNW 42.6 km/h 31.5 km/h 40 % 0 mm
12:49 21.9 °C 7.3 °C 1008.7 hPa North 29.6 km/h 22.7 km/h 39 % 0 mm
12:54 22.2 °C 6.4 °C 1008.4 hPa NNW 38.9 km/h 28 km/h 36 % 0 mm
12:59 22.4 °C 7 °C 1008.4 hPa NNE 29.6 km/h 14.8 km/h 37 % 0 mm
13:04 22.5 °C 6.7 °C 1008 hPa NNE 29.6 km/h 16.6 km/h 36 % 0 mm
13:09 22.8 °C 6.5 °C 1008 hPa North 31.5 km/h 23.3 km/h 35 % 0 mm
13:14 22.8 °C 6.2 °C 1007.7 hPa NNW 27.8 km/h 12.7 km/h 34 % 0 mm
13:19 23.1 °C 5.9 °C 1007.7 hPa NNW 33.3 km/h 18 km/h 33 % 0 mm
13:24 23.1 °C 5.5 °C 1007.7 hPa North 37 km/h 25.7 km/h 32 % 0 mm
13:29 23.1 °C 5.4 °C 1007.3 hPa North 33.3 km/h 18.3 km/h 32 % 0 mm
13:34 23.1 °C 5.5 °C 1007.3 hPa North 25.9 km/h 13.2 km/h 32 % 0 mm
13:39 23.2 °C 5.1 °C 1007 hPa North 33.3 km/h 23 km/h 31 % 0 mm
13:44 23.2 °C 5.1 °C 1007 hPa North 37 km/h 24.3 km/h 31 % 0 mm
13:49 23.2 °C 4.7 °C 1007 hPa North 42.6 km/h 28 km/h 30 % 0 mm
13:54 23.3 °C 4.7 °C 1006.7 hPa NNE 29.6 km/h 15.9 km/h 30 % 0 mm
13:59 23.3 °C 4.2 °C 1006.7 hPa North 50 km/h 27.8 km/h 29 % 0 mm
14:04 23.3 °C 4.3 °C 1006.7 hPa North 42.6 km/h 28.2 km/h 29 % 0 mm
14:09 23.4 °C 4.8 °C 1006.3 hPa NNE 48.1 km/h 20.4 km/h 30 % 0 mm
14:14 23.6 °C 4.5 °C 1006 hPa NNW 33.3 km/h 25.9 km/h 29 % 0 mm
14:19 23.7 °C 4.1 °C 1006 hPa North 30.6 km/h 19.2 km/h 28 % 0 mm
14:24 23.7 °C 4.1 °C 1006 hPa North 38.6 km/h 18.7 km/h 28 % 0 mm
14:29 23.8 °C 4.2 °C 1005.6 hPa NNW 35.2 km/h 22.2 km/h 28 % 0 mm
14:34 23.8 °C 4.2 °C 1005.6 hPa North 37 km/h 19.5 km/h 28 % 0 mm
14:39 24 °C 3.8 °C 1005.6 hPa NNW 40.7 km/h 17.5 km/h 27 % 0 mm
14:44 24.1 °C 4.9 °C 1005.3 hPa NNW 22.5 km/h 12.9 km/h 29 % 0 mm
14:49 24.2 °C 4 °C 1005.6 hPa NNW 42.6 km/h 26.7 km/h 27 % 0 mm
14:54 23.9 °C 3.8 °C 1005.3 hPa North 48.1 km/h 26.2 km/h 27 % 0 mm
14:59 24 °C 3.3 °C 1005 hPa NNW 35.2 km/h 26.9 km/h 26 % 0 mm
15:04 23.9 °C 3.3 °C 1005 hPa North 37 km/h 25.1 km/h 26 % 0 mm
15:09 23.9 °C 3.3 °C 1005 hPa North 38.9 km/h 26.7 km/h 26 % 0 mm
15:14 24 °C 3.8 °C 1004.6 hPa NNE 33.3 km/h 23.3 km/h 27 % 0 mm
15:19 24.1 °C 3.9 °C 1004.3 hPa North 37 km/h 22 km/h 27 % 0 mm
15:24 24.2 °C 2.9 °C 1004.3 hPa North 42.6 km/h 34 km/h 25 % 0 mm
15:29 24.2 °C 3.4 °C 1004.3 hPa North 35.2 km/h 26.4 km/h 26 % 0 mm
15:34 24.2 °C 3.5 °C 1004.3 hPa North 42.6 km/h 15.8 km/h 26 % 0 mm
15:39 24.4 °C 4.2 °C 1004.3 hPa North 24.1 km/h 15.6 km/h 27 % 0 mm
15:44 24.3 °C 3.1 °C 1003.9 hPa NNW 48.1 km/h 27.2 km/h 25 % 0 mm
15:49 24.3 °C 3.6 °C 1003.9 hPa NNW 29.6 km/h 23.3 km/h 26 % 0 mm
15:54 24.3 °C 3.6 °C 1003.9 hPa NNE 27.8 km/h 17.5 km/h 26 % 0 mm
15:59 24.3 °C 3.1 °C 1003.9 hPa North 20.4 km/h 22 km/h 25 % 0 mm
16:04 24.3 °C 3.6 °C 1003.9 hPa North 24.1 km/h 18.8 km/h 26 % 0 mm
16:09 23.9 °C 3.2 °C 1003.6 hPa NW 24.1 km/h 17.4 km/h 26 % 0 mm
16:14 23.7 °C 2.5 °C 1003.9 hPa North 27.8 km/h 21.6 km/h 25 % 0 mm
16:19 23.5 °C 2.3 °C 1003.6 hPa North 31.5 km/h 19.5 km/h 25 % 0 mm
16:24 23.4 °C 2.8 °C 1003.6 hPa North 29.6 km/h 21.6 km/h 26 % 0 mm
16:29 23.3 °C 2.7 °C 1003.6 hPa NNW 27.8 km/h 18.8 km/h 26 % 0 mm
16:34 23.3 °C 2.7 °C 1003.6 hPa NNW 31.5 km/h 12.1 km/h 26 % 0 mm
16:39 23.3 °C 3.3 °C 1003.3 hPa NNW 29.6 km/h 13.8 km/h 27 % 0 mm
16:44 23.3 °C 3.3 °C 1003.6 hPa NNW 16.1 km/h 11.9 km/h 27 % 0 mm
16:49 23.1 °C 3.1 °C 1003.6 hPa NNW 25.9 km/h 13 km/h 27 % 0 mm
16:54 22.9 °C 3.4 °C 1003.6 hPa NNW 22.2 km/h 9.2 km/h 28 % 0 mm
16:59 22.7 °C 3.3 °C 1003.6 hPa NNW 20.9 km/h 18.2 km/h 28 % 0 mm
17:04 22.7 °C 3.7 °C 1003.3 hPa NNW 18.5 km/h 10.8 km/h 29 % 0 mm
17:09 22.6 °C 3.6 °C 1003.3 hPa NNW 18.5 km/h 10.8 km/h 29 % 0 mm
17:14 22.4 °C 3.4 °C 1003.6 hPa NNW 18.5 km/h 11.3 km/h 29 % 0 mm
17:19 22.3 °C 3.4 °C 1003.6 hPa NNW 13 km/h 8.7 km/h 29 % 0 mm
17:24 22.3 °C 3.8 °C 1003.6 hPa North 12.9 km/h 9.2 km/h 30 % 0 mm
17:29 22.5 °C 2 °C 1003.3 hPa NW 29.6 km/h 22.4 km/h 26 % 0 mm
17:34 22.8 °C 1.8 °C 1003.6 hPa NW 24.1 km/h 10.1 km/h 25 % 0 mm
17:39 22.7 °C 2.2 °C 1003.3 hPa NNW 16.7 km/h 11.3 km/h 26 % 0 mm
17:44 22.7 °C 2.2 °C 1003.6 hPa North 31.5 km/h 12.2 km/h 26 % 0 mm
17:49 22.6 °C 1.6 °C 1003.9 hPa NNW 31.5 km/h 29.9 km/h 25 % 0 mm
17:54 22.9 °C 0.1 °C 1003.6 hPa NNW 48.1 km/h 21.9 km/h 22 % 0 mm
17:59 23 °C 0.7 °C 1003.3 hPa North 35.2 km/h 29.5 km/h 23 % 0 mm
18:04 22.9 °C 0.7 °C 1003.3 hPa North 35.2 km/h 19.2 km/h 23 % 0 mm
18:09 22.9 °C 0.7 °C 1003.3 hPa NNW 38.9 km/h 22.7 km/h 23 % 0 mm
18:14 22.9 °C 0.7 °C 1002.9 hPa North 20.9 km/h 12.2 km/h 23 % 0 mm
18:19 22.8 °C 0.6 °C 1003.3 hPa North 25.9 km/h 20.3 km/h 23 % 0 mm
18:24 22.7 °C 0.5 °C 1003.6 hPa NW 31.5 km/h 12.1 km/h 23 % 0 mm
18:29 22.6 °C 1 °C 1003.9 hPa NW 25.9 km/h 24 km/h 24 % 0 mm
18:34 22.7 °C -0.2 °C 1003.6 hPa NW 38.9 km/h 19.5 km/h 22 % 0 mm
18:39 22.6 °C -0.2 °C 1003.6 hPa NW 31.5 km/h 23.8 km/h 22 % 0 mm
18:44 22.5 °C -0.3 °C 1003.9 hPa WNW 33.3 km/h 20.6 km/h 22 % 0 mm
18:49 22.3 °C -0.5 °C 1004.3 hPa NW 29.6 km/h 19 km/h 22 % 0 mm
18:54 22.1 °C -0.6 °C 1004.3 hPa NW 29.6 km/h 23.2 km/h 22 % 0 mm
18:59 21.9 °C -0.2 °C 1005 hPa WNW 51.8 km/h 26.6 km/h 23 % 0 mm
19:04 21.6 °C 0.7 °C 1005 hPa North 29 km/h 24.8 km/h 25 % 0 mm
19:09 20.8 °C 0.6 °C 1005.3 hPa WNW 48.1 km/h 39.3 km/h 26 % 0 mm
19:14 20.2 °C 0.6 °C 1005.6 hPa WNW 37 km/h 29.1 km/h 27 % 0 mm
19:19 20 °C 0.9 °C 1006 hPa WNW 32.2 km/h 20.1 km/h 28 % 0 mm
19:24 19.6 °C 1.9 °C 1005.6 hPa West 46.3 km/h 30.7 km/h 31 % 0 mm
19:29 19.1 °C 2.8 °C 1006 hPa West 38.9 km/h 32 km/h 34 % 0 mm
19:34 18.8 °C 3.4 °C 1006.3 hPa WNW 38.9 km/h 22.2 km/h 36 % 0 mm
19:39 18.5 °C 4.3 °C 1006.3 hPa NW 33.3 km/h 29.3 km/h 39 % 0 mm
19:44 18.2 °C 4.7 °C 1006.7 hPa NW 33.8 km/h 17.2 km/h 41 % 0 mm
19:49 17.9 °C 5.8 °C 1006.3 hPa WNW 42.6 km/h 27.4 km/h 45 % 0 mm
19:54 17.7 °C 6.2 °C 1006.7 hPa NW 35.4 km/h 20.8 km/h 47 % 0 mm
19:59 17.4 °C 6.6 °C 1006.3 hPa WNW 44.4 km/h 34.8 km/h 49 % 0 mm
20:04 16.6 °C 8.3 °C 1007 hPa WNW 55.5 km/h 39.9 km/h 58 % 0 mm
20:09 15.8 °C 8.5 °C 1007 hPa NW 44.4 km/h 35.4 km/h 62 % 0 mm
20:14 15.4 °C 8.6 °C 1006.7 hPa WNW 48.1 km/h 38 km/h 64 % 0 mm
20:19 15.2 °C 8.8 °C 1007 hPa WNW 35.2 km/h 27.4 km/h 66 % 0 mm
20:24 14.7 °C 9.3 °C 1007.3 hPa NNW 31.5 km/h 25.1 km/h 70 % 0 mm
20:29 14.2 °C 9.4 °C 1007.3 hPa WNW 43.5 km/h 22 km/h 73 % 0 mm
20:30 14.1 °C 9.3 °C 1007.3 hPa WNW 42.6 km/h 28.6 km/h 73 % 0 mm
20:39 13.6 °C 9.7 °C 1007.3 hPa NW 42.6 km/h 42.6 km/h 77 % 0 mm
20:44 13.4 °C 9.6 °C 1007.3 hPa WNW 37 km/h 23.2 km/h 78 % 0.41 mm
20:49 13.2 °C 9.6 °C 1007.3 hPa NW 25.9 km/h 23.5 km/h 79 % 0.41 mm
20:54 12.9 °C 9.6 °C 1007.3 hPa WNW 35.2 km/h 29.6 km/h 80 % 0.41 mm
20:59 12.8 °C 9.6 °C 1007.3 hPa North 37 km/h 28.5 km/h 81 % 0.61 mm
21:04 12.5 °C 9.5 °C 1007.7 hPa NW 35.2 km/h 17.7 km/h 82 % 0.61 mm
21:09 12.3 °C 9.7 °C 1007.7 hPa NW 31.5 km/h 22.2 km/h 84 % 0.79 mm
21:14 12.1 °C 9.5 °C 1007.3 hPa NW 37 km/h 22.4 km/h 84 % 0.99 mm
21:19 12 °C 9.6 °C 1007.7 hPa NW 31.5 km/h 13.2 km/h 85 % 0.99 mm
21:24 12 °C 9.6 °C 1007.7 hPa North 18.5 km/h 15.3 km/h 85 % 0.99 mm
21:29 12 °C 9.6 °C 1007.3 hPa NW 25.7 km/h 20.3 km/h 85 % 0.99 mm
21:34 12.1 °C 9.5 °C 1007.7 hPa NW 24.1 km/h 18.5 km/h 84 % 0.99 mm
21:39 12.1 °C 9.5 °C 1007.7 hPa WNW 29.6 km/h 19.3 km/h 84 % 0.99 mm
21:44 12.1 °C 9.5 °C 1008 hPa NW 20.4 km/h 15.4 km/h 84 % 0.61 mm
21:49 12.1 °C 9.4 °C 1008 hPa NW 30.6 km/h 17.4 km/h 84 % 0.61 mm
21:54 12.1 °C 9.4 °C 1008 hPa NW 18.5 km/h 15.6 km/h 84 % 0.61 mm
21:59 12.1 °C 9.5 °C 1008.4 hPa WNW 24.1 km/h 12.6 km/h 84 % 0.41 mm
22:04 12.1 °C 9.3 °C 1008 hPa NW 18.5 km/h 12.1 km/h 83 % 0.41 mm
22:09 12.1 °C 9.3 °C 1008.4 hPa NW 20.4 km/h 15 km/h 83 % 0.2 mm
22:14 12.1 °C 9.3 °C 1008.4 hPa WNW 11.1 km/h 9 km/h 83 % 0 mm
22:19 12.1 °C 9.4 °C 1008.7 hPa WNW 16.7 km/h 9.2 km/h 84 % 0 mm
22:24 12 °C 9.4 °C 1008.4 hPa WNW 16.7 km/h 12.7 km/h 84 % 0 mm
22:29 11.9 °C 9.1 °C 1008.7 hPa North 24.1 km/h 18.2 km/h 83 % 0 mm
22:34 11.7 °C 8.9 °C 1008.4 hPa WNW 19.3 km/h 12.1 km/h 83 % 0 mm
22:39 11.4 °C 8.1 °C 1008.4 hPa WNW 27.8 km/h 18 km/h 80 % 0 mm
22:44 11.4 °C 7.5 °C 1008 hPa WNW 20.4 km/h 18.3 km/h 77 % 0 mm
22:49 11.3 °C 7.3 °C 1008 hPa WNW 18.5 km/h 11.7 km/h 76 % 0 mm
22:54 11.3 °C 7.2 °C 1008 hPa WNW 18.5 km/h 9.8 km/h 76 % 0 mm
22:59 11.2 °C 7.2 °C 1008 hPa West 24.1 km/h 19.3 km/h 76 % 0 mm
23:04 11.2 °C 6.8 °C 1008.4 hPa NW 12.9 km/h 11.6 km/h 74 % 0 mm
23:09 11.2 °C 6.5 °C 1008.4 hPa West 17.7 km/h 12.9 km/h 73 % 0 mm
23:14 11.1 °C 6.4 °C 1008.4 hPa WNW 16.1 km/h 11.4 km/h 73 % 0 mm
23:19 11 °C 5.5 °C 1008.7 hPa WNW 20.4 km/h 14 km/h 69 % 0 mm
23:24 10.9 °C 5.5 °C 1008.7 hPa WNW 18.5 km/h 13.4 km/h 69 % 0 mm
23:29 10.9 °C 5.2 °C 1008.7 hPa WNW 24.1 km/h 15.4 km/h 68 % 0 mm
23:34 10.8 °C 5.3 °C 1008.7 hPa WNW 16.7 km/h 13.2 km/h 69 % 0 mm
23:39 10.6 °C 5.4 °C 1008.7 hPa WNW 20.4 km/h 14.5 km/h 70 % 0 mm
23:44 10.5 °C 5.4 °C 1008.4 hPa WNW 18.5 km/h 15.9 km/h 71 % 0 mm
23:49 10.4 °C 5.4 °C 1008.4 hPa North 27.8 km/h 14 km/h 71 % 0 mm
23:54 10.4 °C 5.3 °C 1008.4 hPa WNW 19.3 km/h 14.6 km/h 71 % 0 mm
23:59 10.3 °C 5.3 °C 1008.4 hPa North 20.4 km/h 19.8 km/h 71 % 0 mm
Ararat Weather
Compliments of Weather Underground - 2.25 mb
Click here to send mail.


ABOUT

Live weather data from Ararat, Victoria, Australia, 3377
Data uploaded from Cumulus every 5 minutes to Weather Underground.
This site then downloads the raw data for formatting and display.
Metric and imperial data can be displayed. Graphs and historical data available.
Includes Sun and Moon times and rain image live from BOM.

Check out Ararat Weather on Facebook, Twitter and Google +

Help support ongoing costs by checking out the ads





Follow @AraratWeather